sensor_id;sensor_type;location;lat;lon;timestamp;P1;durP1;ratioP1;P2;durP2;ratioP2
58250;SDS011;51449;51.676;5.812;2023-06-05T00:00:50;5.23;;;3.70;;
58250;SDS011;51449;51.676;5.812;2023-06-05T00:03:31;5.23;;;3.90;;
58250;SDS011;51449;51.676;5.812;2023-06-05T00:06:11;5.40;;;3.57;;
58250;SDS011;51449;51.676;5.812;2023-06-05T00:08:53;5.17;;;3.83;;
58250;SDS011;51449;51.676;5.812;2023-06-05T00:11:34;6.57;;;4.20;;
58250;SDS011;51449;51.676;5.812;2023-06-05T00:14:16;5.43;;;4.30;;
58250;SDS011;51449;51.676;5.812;2023-06-05T00:16:57;6.57;;;4.00;;
58250;SDS011;51449;51.676;5.812;2023-06-05T00:19:37;6.70;;;4.07;;
58250;SDS011;51449;51.676;5.812;2023-06-05T00:22:17;5.03;;;3.97;;
58250;SDS011;51449;51.676;5.812;2023-06-05T00:24:58;5.93;;;4.20;;
58250;SDS011;51449;51.676;5.812;2023-06-05T00:27:38;7.83;;;4.30;;
58250;SDS011;51449;51.676;5.812;2023-06-05T00:30:20;5.73;;;4.27;;
58250;SDS011;51449;51.676;5.812;2023-06-05T00:33:00;5.60;;;4.00;;
58250;SDS011;51449;51.676;5.812;2023-06-05T00:35:41;5.27;;;4.13;;
58250;SDS011;51449;51.676;5.812;2023-06-05T00:38:21;4.80;;;4.30;;
58250;SDS011;51449;51.676;5.812;2023-06-05T00:41:01;6.27;;;4.50;;
58250;SDS011;51449;51.676;5.812;2023-06-05T00:43:42;6.60;;;4.67;;
58250;SDS011;51449;51.676;5.812;2023-06-05T00:46:23;6.87;;;4.53;;
58250;SDS011;51449;51.676;5.812;2023-06-05T00:49:04;7.00;;;4.70;;
58250;SDS011;51449;51.676;5.812;2023-06-05T00:51:46;6.03;;;4.13;;
58250;SDS011;51449;51.676;5.812;2023-06-05T00:54:26;7.53;;;4.73;;
58250;SDS011;51449;51.676;5.812;2023-06-05T00:57:08;5.93;;;4.90;;
58250;SDS011;51449;51.676;5.812;2023-06-05T00:59:48;6.20;;;4.80;;
58250;SDS011;51449;51.676;5.812;2023-06-05T01:02:30;5.93;;;4.90;;
58250;SDS011;51449;51.676;5.812;2023-06-05T01:05:10;7.90;;;5.07;;
58250;SDS011;51449;51.676;5.812;2023-06-05T01:07:53;6.80;;;5.30;;
58250;SDS011;51449;51.676;5.812;2023-06-05T01:10:33;6.83;;;4.97;;
58250;SDS011;51449;51.676;5.812;2023-06-05T01:13:23;10.03;;;5.33;;
58250;SDS011;51449;51.676;5.812;2023-06-05T01:16:10;6.67;;;5.17;;
58250;SDS011;51449;51.676;5.812;2023-06-05T01:18:51;8.97;;;5.57;;
58250;SDS011;51449;51.676;5.812;2023-06-05T01:21:34;8.10;;;6.00;;
58250;SDS011;51449;51.676;5.812;2023-06-05T01:24:17;6.53;;;5.53;;
58250;SDS011;51449;51.676;5.812;2023-06-05T01:27:07;7.83;;;6.03;;
58250;SDS011;51449;51.676;5.812;2023-06-05T01:32:56;7.37;;;6.47;;
58250;SDS011;51449;51.676;5.812;2023-06-05T01:35:43;5.93;;;5.30;;
58250;SDS011;51449;51.676;5.812;2023-06-05T01:38:28;9.27;;;6.07;;
58250;SDS011;51449;51.676;5.812;2023-06-05T01:41:10;7.93;;;5.50;;
58250;SDS011;51449;51.676;5.812;2023-06-05T01:43:52;9.37;;;6.20;;
58250;SDS011;51449;51.676;5.812;2023-06-05T01:46:33;7.70;;;6.10;;
58250;SDS011;51449;51.676;5.812;2023-06-05T01:49:15;8.43;;;6.47;;
58250;SDS011;51449;51.676;5.812;2023-06-05T01:51:57;8.07;;;6.13;;
58250;SDS011;51449;51.676;5.812;2023-06-05T01:54:37;8.17;;;6.07;;
58250;SDS011;51449;51.676;5.812;2023-06-05T01:57:18;8.70;;;6.07;;
58250;SDS011;51449;51.676;5.812;2023-06-05T01:59:59;9.17;;;6.20;;
58250;SDS011;51449;51.676;5.812;2023-06-05T02:02:51;7.73;;;6.07;;
58250;SDS011;51449;51.676;5.812;2023-06-05T02:05:33;8.83;;;6.07;;
58250;SDS011;51449;51.676;5.812;2023-06-05T02:08:13;7.93;;;6.03;;
58250;SDS011;51449;51.676;5.812;2023-06-05T02:10:59;7.70;;;6.40;;
58250;SDS011;51449;51.676;5.812;2023-06-05T02:13:42;11.10;;;6.73;;
58250;SDS011;51449;51.676;5.812;2023-06-05T02:16:23;9.87;;;7.23;;
58250;SDS011;51449;51.676;5.812;2023-06-05T02:19:06;11.83;;;7.40;;
58250;SDS011;51449;51.676;5.812;2023-06-05T02:21:46;8.23;;;6.77;;
58250;SDS011;51449;51.676;5.812;2023-06-05T02:24:28;7.70;;;6.20;;
58250;SDS011;51449;51.676;5.812;2023-06-05T02:27:09;9.93;;;7.20;;
58250;SDS011;51449;51.676;5.812;2023-06-05T02:29:50;8.97;;;7.10;;
58250;SDS011;51449;51.676;5.812;2023-06-05T02:32:31;8.57;;;7.23;;
58250;SDS011;51449;51.676;5.812;2023-06-05T02:35:11;9.27;;;7.50;;
58250;SDS011;51449;51.676;5.812;2023-06-05T02:37:53;10.90;;;7.40;;
58250;SDS011;51449;51.676;5.812;2023-06-05T02:40:33;8.83;;;6.90;;
58250;SDS011;51449;51.676;5.812;2023-06-05T02:43:13;8.20;;;7.37;;
58250;SDS011;51449;51.676;5.812;2023-06-05T02:45:54;10.43;;;7.57;;
58250;SDS011;51449;51.676;5.812;2023-06-05T02:48:35;10.43;;;7.90;;
58250;SDS011;51449;51.676;5.812;2023-06-05T02:51:15;9.80;;;7.53;;
58250;SDS011;51449;51.676;5.812;2023-06-05T02:53:57;9.93;;;7.43;;
58250;SDS011;51449;51.676;5.812;2023-06-05T02:56:38;10.00;;;8.27;;
58250;SDS011;51449;51.676;5.812;2023-06-05T02:59:18;10.47;;;7.60;;
58250;SDS011;51449;51.676;5.812;2023-06-05T03:02:00;9.70;;;7.60;;
58250;SDS011;51449;51.676;5.812;2023-06-05T03:04:41;10.20;;;7.73;;
58250;SDS011;51449;51.676;5.812;2023-06-05T03:07:23;10.23;;;8.30;;
58250;SDS011;51449;51.676;5.812;2023-06-05T03:10:03;10.37;;;7.77;;
58250;SDS011;51449;51.676;5.812;2023-06-05T03:12:45;10.93;;;8.57;;
58250;SDS011;51449;51.676;5.812;2023-06-05T03:15:25;9.17;;;8.00;;
58250;SDS011;51449;51.676;5.812;2023-06-05T03:18:05;10.97;;;8.10;;
58250;SDS011;51449;51.676;5.812;2023-06-05T03:20:48;9.50;;;8.13;;
58250;SDS011;51449;51.676;5.812;2023-06-05T03:23:30;11.47;;;8.60;;
58250;SDS011;51449;51.676;5.812;2023-06-05T03:26:15;9.90;;;8.05;;
58250;SDS011;51449;51.676;5.812;2023-06-05T03:28:55;12.30;;;8.67;;
58250;SDS011;51449;51.676;5.812;2023-06-05T03:31:36;11.00;;;8.73;;
58250;SDS011;51449;51.676;5.812;2023-06-05T03:34:17;10.63;;;8.67;;
58250;SDS011;51449;51.676;5.812;2023-06-05T03:36:59;10.87;;;8.37;;
58250;SDS011;51449;51.676;5.812;2023-06-05T03:39:40;12.00;;;8.93;;
58250;SDS011;51449;51.676;5.812;2023-06-05T03:42:20;14.43;;;8.73;;
58250;SDS011;51449;51.676;5.812;2023-06-05T03:45:01;12.50;;;8.77;;
58250;SDS011;51449;51.676;5.812;2023-06-05T03:47:42;14.57;;;8.40;;
58250;SDS011;51449;51.676;5.812;2023-06-05T03:50:24;10.90;;;8.17;;
58250;SDS011;51449;51.676;5.812;2023-06-05T03:53:06;11.57;;;9.40;;
58250;SDS011;51449;51.676;5.812;2023-06-05T03:55:49;15.80;;;9.27;;
58250;SDS011;51449;51.676;5.812;2023-06-05T03:58:38;13.50;;;8.80;;
58250;SDS011;51449;51.676;5.812;2023-06-05T04:01:20;13.03;;;8.73;;
58250;SDS011;51449;51.676;5.812;2023-06-05T04:04:00;11.73;;;9.00;;
58250;SDS011;51449;51.676;5.812;2023-06-05T04:06:41;11.67;;;8.70;;
58250;SDS011;51449;51.676;5.812;2023-06-05T04:09:23;12.07;;;9.37;;
58250;SDS011;51449;51.676;5.812;2023-06-05T04:12:03;12.53;;;8.77;;
58250;SDS011;51449;51.676;5.812;2023-06-05T04:14:48;12.82;;;9.77;;
58250;SDS011;51449;51.676;5.812;2023-06-05T04:17:28;12.83;;;9.57;;
58250;SDS011;51449;51.676;5.812;2023-06-05T04:20:09;12.57;;;9.27;;
58250;SDS011;51449;51.676;5.812;2023-06-05T04:22:51;13.43;;;9.40;;
58250;SDS011;51449;51.676;5.812;2023-06-05T04:25:31;12.07;;;8.93;;
58250;SDS011;51449;51.676;5.812;2023-06-05T04:28:11;12.83;;;9.67;;
58250;SDS011;51449;51.676;5.812;2023-06-05T04:30:52;12.03;;;9.30;;
58250;SDS011;51449;51.676;5.812;2023-06-05T04:33:32;13.63;;;9.70;;
58250;SDS011;51449;51.676;5.812;2023-06-05T04:36:13;13.00;;;9.70;;
58250;SDS011;51449;51.676;5.812;2023-06-05T04:38:54;13.37;;;8.97;;
58250;SDS011;51449;51.676;5.812;2023-06-05T04:41:35;14.10;;;9.50;;
58250;SDS011;51449;51.676;5.812;2023-06-05T04:44:17;13.20;;;9.53;;
58250;SDS011;51449;51.676;5.812;2023-06-05T04:46:59;15.83;;;9.67;;
58250;SDS011;51449;51.676;5.812;2023-06-05T04:49:41;13.33;;;9.40;;
58250;SDS011;51449;51.676;5.812;2023-06-05T04:52:22;13.10;;;9.60;;
58250;SDS011;51449;51.676;5.812;2023-06-05T04:55:04;12.77;;;9.43;;
58250;SDS011;51449;51.676;5.812;2023-06-05T04:57:45;13.13;;;9.23;;
58250;SDS011;51449;51.676;5.812;2023-06-05T05:00:26;12.10;;;9.40;;
58250;SDS011;51449;51.676;5.812;2023-06-05T05:03:07;14.00;;;9.43;;
58250;SDS011;51449;51.676;5.812;2023-06-05T05:05:48;13.00;;;9.23;;
58250;SDS011;51449;51.676;5.812;2023-06-05T05:08:30;13.80;;;9.87;;
58250;SDS011;51449;51.676;5.812;2023-06-05T05:11:11;13.83;;;9.80;;
58250;SDS011;51449;51.676;5.812;2023-06-05T05:13:54;13.93;;;9.53;;
58250;SDS011;51449;51.676;5.812;2023-06-05T05:16:35;13.10;;;9.40;;
58250;SDS011;51449;51.676;5.812;2023-06-05T05:19:17;11.70;;;9.50;;
58250;SDS011;51449;51.676;5.812;2023-06-05T05:21:58;12.87;;;8.87;;
58250;SDS011;51449;51.676;5.812;2023-06-05T05:24:39;13.70;;;9.43;;
58250;SDS011;51449;51.676;5.812;2023-06-05T05:27:21;13.20;;;9.00;;
58250;SDS011;51449;51.676;5.812;2023-06-05T05:30:01;13.70;;;8.70;;
58250;SDS011;51449;51.676;5.812;2023-06-05T05:32:43;13.67;;;9.30;;
58250;SDS011;51449;51.676;5.812;2023-06-05T05:35:26;12.90;;;9.27;;
58250;SDS011;51449;51.676;5.812;2023-06-05T05:38:06;12.67;;;9.60;;
58250;SDS011;51449;51.676;5.812;2023-06-05T05:40:47;11.43;;;8.33;;
58250;SDS011;51449;51.676;5.812;2023-06-05T05:43:31;12.07;;;9.10;;
58250;SDS011;51449;51.676;5.812;2023-06-05T05:46:11;13.93;;;8.50;;
58250;SDS011;51449;51.676;5.812;2023-06-05T05:48:51;14.67;;;9.00;;
58250;SDS011;51449;51.676;5.812;2023-06-05T05:51:33;14.70;;;9.10;;
58250;SDS011;51449;51.676;5.812;2023-06-05T05:54:13;11.87;;;8.33;;
58250;SDS011;51449;51.676;5.812;2023-06-05T05:56:54;14.33;;;8.87;;
58250;SDS011;51449;51.676;5.812;2023-06-05T05:59:35;12.70;;;8.63;;
58250;SDS011;51449;51.676;5.812;2023-06-05T06:02:15;12.23;;;8.43;;
58250;SDS011;51449;51.676;5.812;2023-06-05T06:04:56;12.30;;;8.80;;
58250;SDS011;51449;51.676;5.812;2023-06-05T06:07:36;12.00;;;8.60;;
58250;SDS011;51449;51.676;5.812;2023-06-05T06:10:16;12.23;;;8.50;;
58250;SDS011;51449;51.676;5.812;2023-06-05T06:12:57;12.93;;;8.50;;
58250;SDS011;51449;51.676;5.812;2023-06-05T06:15:39;11.17;;;9.57;;
58250;SDS011;51449;51.676;5.812;2023-06-05T06:18:20;12.30;;;8.47;;
58250;SDS011;51449;51.676;5.812;2023-06-05T06:21:00;11.53;;;9.07;;
58250;SDS011;51449;51.676;5.812;2023-06-05T06:23:42;12.10;;;8.70;;
58250;SDS011;51449;51.676;5.812;2023-06-05T06:26:24;11.53;;;8.57;;
58250;SDS011;51449;51.676;5.812;2023-06-05T06:29:07;13.93;;;8.67;;
58250;SDS011;51449;51.676;5.812;2023-06-05T06:31:48;11.50;;;7.57;;
58250;SDS011;51449;51.676;5.812;2023-06-05T06:34:29;11.07;;;8.50;;
58250;SDS011;51449;51.676;5.812;2023-06-05T06:37:12;12.63;;;9.07;;
58250;SDS011;51449;51.676;5.812;2023-06-05T06:39:55;9.98;;;7.93;;
58250;SDS011;51449;51.676;5.812;2023-06-05T06:42:36;11.37;;;8.23;;
58250;SDS011;51449;51.676;5.812;2023-06-05T06:48:12;12.50;;;7.57;;
58250;SDS011;51449;51.676;5.812;2023-06-05T06:50:53;11.00;;;7.50;;
58250;SDS011;51449;51.676;5.812;2023-06-05T06:53:33;10.90;;;7.83;;
58250;SDS011;51449;51.676;5.812;2023-06-05T06:56:15;11.70;;;7.90;;
58250;SDS011;51449;51.676;5.812;2023-06-05T06:58:57;10.90;;;8.10;;
58250;SDS011;51449;51.676;5.812;2023-06-05T07:01:42;12.33;;;8.50;;
58250;SDS011;51449;51.676;5.812;2023-06-05T07:04:27;11.80;;;8.33;;
58250;SDS011;51449;51.676;5.812;2023-06-05T07:07:08;12.47;;;7.70;;
58250;SDS011;51449;51.676;5.812;2023-06-05T07:09:50;12.87;;;7.80;;
58250;SDS011;51449;51.676;5.812;2023-06-05T07:12:31;9.33;;;7.30;;
58250;SDS011;51449;51.676;5.812;2023-06-05T07:15:12;10.10;;;7.90;;
58250;SDS011;51449;51.676;5.812;2023-06-05T07:17:52;10.00;;;7.60;;
58250;SDS011;51449;51.676;5.812;2023-06-05T07:20:33;10.73;;;7.60;;
58250;SDS011;51449;51.676;5.812;2023-06-05T07:23:14;12.03;;;7.60;;
58250;SDS011;51449;51.676;5.812;2023-06-05T07:25:55;14.03;;;8.70;;
58250;SDS011;51449;51.676;5.812;2023-06-05T07:28:36;11.20;;;8.10;;
58250;SDS011;51449;51.676;5.812;2023-06-05T07:31:17;11.70;;;7.93;;
58250;SDS011;51449;51.676;5.812;2023-06-05T07:33:58;11.60;;;8.03;;
58250;SDS011;51449;51.676;5.812;2023-06-05T07:36:39;10.60;;;7.97;;
58250;SDS011;51449;51.676;5.812;2023-06-05T07:39:20;10.73;;;8.07;;
58250;SDS011;51449;51.676;5.812;2023-06-05T07:42:01;11.87;;;7.90;;
58250;SDS011;51449;51.676;5.812;2023-06-05T07:44:41;10.67;;;8.17;;
58250;SDS011;51449;51.676;5.812;2023-06-05T07:47:22;13.07;;;8.80;;
58250;SDS011;51449;51.676;5.812;2023-06-05T07:50:03;10.87;;;8.37;;
58250;SDS011;51449;51.676;5.812;2023-06-05T07:52:46;13.73;;;8.50;;
58250;SDS011;51449;51.676;5.812;2023-06-05T07:55:26;12.67;;;8.13;;
58250;SDS011;51449;51.676;5.812;2023-06-05T07:58:07;13.57;;;8.67;;
58250;SDS011;51449;51.676;5.812;2023-06-05T08:00:48;12.07;;;7.63;;
58250;SDS011;51449;51.676;5.812;2023-06-05T08:03:29;10.80;;;8.17;;
58250;SDS011;51449;51.676;5.812;2023-06-05T08:06:09;11.33;;;8.47;;
58250;SDS011;51449;51.676;5.812;2023-06-05T08:08:50;13.10;;;7.90;;
58250;SDS011;51449;51.676;5.812;2023-06-05T08:11:32;13.30;;;7.70;;
58250;SDS011;51449;51.676;5.812;2023-06-05T08:14:12;11.33;;;7.37;;
58250;SDS011;51449;51.676;5.812;2023-06-05T08:16:53;10.37;;;7.57;;
58250;SDS011;51449;51.676;5.812;2023-06-05T08:19:33;9.03;;;7.87;;
58250;SDS011;51449;51.676;5.812;2023-06-05T08:22:14;12.43;;;8.40;;
58250;SDS011;51449;51.676;5.812;2023-06-05T08:24:55;10.50;;;7.73;;
58250;SDS011;51449;51.676;5.812;2023-06-05T08:27:38;12.13;;;8.30;;
58250;SDS011;51449;51.676;5.812;2023-06-05T08:30:19;12.17;;;8.00;;
58250;SDS011;51449;51.676;5.812;2023-06-05T08:33:00;11.73;;;8.05;;
58250;SDS011;51449;51.676;5.812;2023-06-05T08:35:41;10.02;;;8.02;;
58250;SDS011;51449;51.676;5.812;2023-06-05T08:38:22;11.32;;;8.20;;
58250;SDS011;51449;51.676;5.812;2023-06-05T08:41:03;12.35;;;8.05;;
58250;SDS011;51449;51.676;5.812;2023-06-05T08:43:47;10.45;;;7.05;;
58250;SDS011;51449;51.676;5.812;2023-06-05T08:46:28;11.50;;;7.57;;
58250;SDS011;51449;51.676;5.812;2023-06-05T08:49:11;9.13;;;7.15;;
58250;SDS011;51449;51.676;5.812;2023-06-05T08:52:01;12.20;;;7.43;;
58250;SDS011;51449;51.676;5.812;2023-06-05T08:54:46;9.18;;;7.30;;
58250;SDS011;51449;51.676;5.812;2023-06-05T08:57:26;12.23;;;7.63;;
58250;SDS011;51449;51.676;5.812;2023-06-05T09:00:09;10.20;;;7.90;;
58250;SDS011;51449;51.676;5.812;2023-06-05T09:02:51;9.77;;;7.20;;
58250;SDS011;51449;51.676;5.812;2023-06-05T09:05:31;10.02;;;7.03;;
58250;SDS011;51449;51.676;5.812;2023-06-05T09:08:13;10.32;;;6.80;;
58250;SDS011;51449;51.676;5.812;2023-06-05T09:14:14;10.15;;;7.00;;
58250;SDS011;51449;51.676;5.812;2023-06-05T09:17:11;9.75;;;7.00;;
58250;SDS011;51449;51.676;5.812;2023-06-05T09:19:54;9.50;;;6.50;;
58250;SDS011;51449;51.676;5.812;2023-06-05T09:22:34;11.30;;;6.95;;
58250;SDS011;51449;51.676;5.812;2023-06-05T09:25:15;9.52;;;6.70;;
58250;SDS011;51449;51.676;5.812;2023-06-05T09:28:05;9.23;;;6.80;;
58250;SDS011;51449;51.676;5.812;2023-06-05T09:31:08;8.25;;;6.10;;
58250;SDS011;51449;51.676;5.812;2023-06-05T09:33:54;9.00;;;6.35;;
58250;SDS011;51449;51.676;5.812;2023-06-05T09:36:45;10.10;;;7.20;;
58250;SDS011;51449;51.676;5.812;2023-06-05T09:39:26;9.45;;;6.15;;
58250;SDS011;51449;51.676;5.812;2023-06-05T09:42:09;8.90;;;6.15;;
58250;SDS011;51449;51.676;5.812;2023-06-05T09:45:00;11.32;;;6.55;;
58250;SDS011;51449;51.676;5.812;2023-06-05T09:47:41;7.18;;;5.88;;
58250;SDS011;51449;51.676;5.812;2023-06-05T09:50:33;10.98;;;6.90;;
58250;SDS011;51449;51.676;5.812;2023-06-05T09:53:16;11.35;;;7.15;;
58250;SDS011;51449;51.676;5.812;2023-06-05T09:56:00;8.88;;;6.28;;
58250;SDS011;51449;51.676;5.812;2023-06-05T09:58:43;8.05;;;5.60;;
58250;SDS011;51449;51.676;5.812;2023-06-05T10:01:30;7.68;;;5.75;;
58250;SDS011;51449;51.676;5.812;2023-06-05T10:04:16;9.25;;;6.10;;
58250;SDS011;51449;51.676;5.812;2023-06-05T10:07:01;8.75;;;6.25;;
58250;SDS011;51449;51.676;5.812;2023-06-05T10:09:44;7.20;;;6.40;;
58250;SDS011;51449;51.676;5.812;2023-06-05T10:15:11;8.68;;;5.97;;
58250;SDS011;51449;51.676;5.812;2023-06-05T10:17:53;8.68;;;6.30;;
58250;SDS011;51449;51.676;5.812;2023-06-05T10:20:35;7.28;;;5.40;;
58250;SDS011;51449;51.676;5.812;2023-06-05T10:23:16;7.82;;;5.55;;
58250;SDS011;51449;51.676;5.812;2023-06-05T10:26:00;8.57;;;6.00;;
58250;SDS011;51449;51.676;5.812;2023-06-05T10:32:02;6.90;;;5.25;;
58250;SDS011;51449;51.676;5.812;2023-06-05T10:34:54;11.48;;;5.97;;
58250;SDS011;51449;51.676;5.812;2023-06-05T10:40:58;7.75;;;5.35;;
58250;SDS011;51449;51.676;5.812;2023-06-05T10:43:46;7.80;;;5.32;;
58250;SDS011;51449;51.676;5.812;2023-06-05T10:46:30;13.90;;;5.25;;
58250;SDS011;51449;51.676;5.812;2023-06-05T10:49:16;8.07;;;5.60;;
58250;SDS011;51449;51.676;5.812;2023-06-05T10:51:59;6.60;;;5.05;;
58250;SDS011;51449;51.676;5.812;2023-06-05T10:57:24;9.27;;;5.35;;
58250;SDS011;51449;51.676;5.812;2023-06-05T11:00:05;5.40;;;4.70;;
58250;SDS011;51449;51.676;5.812;2023-06-05T11:02:52;12.10;;;5.80;;
58250;SDS011;51449;51.676;5.812;2023-06-05T11:05:33;8.63;;;5.68;;
58250;SDS011;51449;51.676;5.812;2023-06-05T11:08:14;7.28;;;5.25;;
58250;SDS011;51449;51.676;5.812;2023-06-05T11:11:01;7.93;;;5.28;;
58250;SDS011;51449;51.676;5.812;2023-06-05T11:13:53;9.15;;;5.45;;
58250;SDS011;51449;51.676;5.812;2023-06-05T11:16:35;6.28;;;4.97;;
58250;SDS011;51449;51.676;5.812;2023-06-05T11:22:02;6.90;;;5.15;;
58250;SDS011;51449;51.676;5.812;2023-06-05T11:28:04;7.30;;;5.07;;
58250;SDS011;51449;51.676;5.812;2023-06-05T11:30:49;6.75;;;4.78;;
58250;SDS011;51449;51.676;5.812;2023-06-05T11:33:29;8.68;;;5.10;;
58250;SDS011;51449;51.676;5.812;2023-06-05T11:36:10;8.23;;;4.95;;
58250;SDS011;51449;51.676;5.812;2023-06-05T11:38:53;7.57;;;5.30;;
58250;SDS011;51449;51.676;5.812;2023-06-05T11:41:48;9.05;;;4.53;;
58250;SDS011;51449;51.676;5.812;2023-06-05T11:44:31;5.82;;;4.32;;
58250;SDS011;51449;51.676;5.812;2023-06-05T11:50:12;8.40;;;5.60;;
58250;SDS011;51449;51.676;5.812;2023-06-05T11:55:47;7.28;;;4.72;;
58250;SDS011;51449;51.676;5.812;2023-06-05T11:58:28;6.15;;;4.47;;
58250;SDS011;51449;51.676;5.812;2023-06-05T12:01:14;9.55;;;4.95;;
58250;SDS011;51449;51.676;5.812;2023-06-05T12:04:02;5.40;;;3.95;;
58250;SDS011;51449;51.676;5.812;2023-06-05T12:06:45;8.80;;;5.25;;
58250;SDS011;51449;51.676;5.812;2023-06-05T12:09:28;5.03;;;4.22;;
58250;SDS011;51449;51.676;5.812;2023-06-05T12:12:08;7.22;;;4.45;;
58250;SDS011;51449;51.676;5.812;2023-06-05T12:14:48;7.50;;;4.05;;
58250;SDS011;51449;51.676;5.812;2023-06-05T12:17:29;6.07;;;4.03;;
58250;SDS011;51449;51.676;5.812;2023-06-05T12:20:09;5.35;;;4.00;;
58250;SDS011;51449;51.676;5.812;2023-06-05T12:22:49;7.68;;;3.55;;
58250;SDS011;51449;51.676;5.812;2023-06-05T12:25:30;4.55;;;3.20;;
58250;SDS011;51449;51.676;5.812;2023-06-05T12:28:19;6.00;;;3.22;;
58250;SDS011;51449;51.676;5.812;2023-06-05T12:31:00;4.60;;;4.05;;
58250;SDS011;51449;51.676;5.812;2023-06-05T12:33:47;6.38;;;3.50;;
58250;SDS011;51449;51.676;5.812;2023-06-05T12:36:28;5.75;;;3.20;;
58250;SDS011;51449;51.676;5.812;2023-06-05T12:39:10;4.35;;;3.67;;
58250;SDS011;51449;51.676;5.812;2023-06-05T12:41:54;4.00;;;3.20;;
58250;SDS011;51449;51.676;5.812;2023-06-05T12:44:34;4.50;;;3.60;;
58250;SDS011;51449;51.676;5.812;2023-06-05T12:47:14;5.75;;;3.38;;
58250;SDS011;51449;51.676;5.812;2023-06-05T12:49:54;4.32;;;3.08;;
58250;SDS011;51449;51.676;5.812;2023-06-05T12:52:37;10.07;;;3.45;;
58250;SDS011;51449;51.676;5.812;2023-06-05T12:55:18;4.22;;;2.85;;
58250;SDS011;51449;51.676;5.812;2023-06-05T12:57:59;4.45;;;2.80;;
58250;SDS011;51449;51.676;5.812;2023-06-05T13:00:39;4.75;;;3.10;;
58250;SDS011;51449;51.676;5.812;2023-06-05T13:03:21;3.17;;;2.83;;
58250;SDS011;51449;51.676;5.812;2023-06-05T13:06:03;4.30;;;2.78;;
58250;SDS011;51449;51.676;5.812;2023-06-05T13:08:44;4.72;;;2.40;;
58250;SDS011;51449;51.676;5.812;2023-06-05T13:11:25;3.80;;;2.10;;
58250;SDS011;51449;51.676;5.812;2023-06-05T13:14:05;3.20;;;2.33;;
58250;SDS011;51449;51.676;5.812;2023-06-05T13:16:45;5.05;;;3.40;;
58250;SDS011;51449;51.676;5.812;2023-06-05T13:19:26;4.63;;;3.20;;
58250;SDS011;51449;51.676;5.812;2023-06-05T13:22:07;4.45;;;2.83;;
58250;SDS011;51449;51.676;5.812;2023-06-05T13:24:47;4.45;;;2.55;;
58250;SDS011;51449;51.676;5.812;2023-06-05T13:27:29;5.55;;;2.90;;
58250;SDS011;51449;51.676;5.812;2023-06-05T13:30:09;3.92;;;2.53;;
58250;SDS011;51449;51.676;5.812;2023-06-05T13:32:50;6.65;;;3.28;;
58250;SDS011;51449;51.676;5.812;2023-06-05T13:35:34;4.57;;;2.53;;
58250;SDS011;51449;51.676;5.812;2023-06-05T13:38:15;3.38;;;2.25;;
58250;SDS011;51449;51.676;5.812;2023-06-05T13:40:55;2.92;;;2.40;;
58250;SDS011;51449;51.676;5.812;2023-06-05T13:43:35;3.67;;;2.70;;
58250;SDS011;51449;51.676;5.812;2023-06-05T13:46:15;4.15;;;2.50;;
58250;SDS011;51449;51.676;5.812;2023-06-05T13:48:56;3.75;;;2.38;;
58250;SDS011;51449;51.676;5.812;2023-06-05T13:51:39;3.80;;;2.50;;
58250;SDS011;51449;51.676;5.812;2023-06-05T13:54:20;3.60;;;3.03;;
58250;SDS011;51449;51.676;5.812;2023-06-05T13:57:00;4.65;;;2.90;;
58250;SDS011;51449;51.676;5.812;2023-06-05T13:59:40;5.38;;;2.55;;
58250;SDS011;51449;51.676;5.812;2023-06-05T14:02:20;3.60;;;2.47;;
58250;SDS011;51449;51.676;5.812;2023-06-05T14:05:01;3.88;;;2.83;;
58250;SDS011;51449;51.676;5.812;2023-06-05T14:07:41;3.70;;;2.53;;
58250;SDS011;51449;51.676;5.812;2023-06-05T14:10:29;3.13;;;2.40;;
58250;SDS011;51449;51.676;5.812;2023-06-05T14:13:09;2.67;;;2.42;;
58250;SDS011;51449;51.676;5.812;2023-06-05T14:15:49;11.10;;;2.90;;
58250;SDS011;51449;51.676;5.812;2023-06-05T14:18:30;3.60;;;2.92;;
58250;SDS011;51449;51.676;5.812;2023-06-05T14:21:11;4.57;;;2.53;;
58250;SDS011;51449;51.676;5.812;2023-06-05T14:23:51;4.55;;;2.83;;
58250;SDS011;51449;51.676;5.812;2023-06-05T14:26:32;4.85;;;2.67;;
58250;SDS011;51449;51.676;5.812;2023-06-05T14:29:12;4.72;;;2.80;;
58250;SDS011;51449;51.676;5.812;2023-06-05T14:31:53;3.15;;;2.30;;
58250;SDS011;51449;51.676;5.812;2023-06-05T14:34:33;4.97;;;2.80;;
58250;SDS011;51449;51.676;5.812;2023-06-05T14:37:13;4.07;;;3.03;;
58250;SDS011;51449;51.676;5.812;2023-06-05T14:39:53;4.10;;;2.60;;
58250;SDS011;51449;51.676;5.812;2023-06-05T14:42:34;4.05;;;3.03;;
58250;SDS011;51449;51.676;5.812;2023-06-05T14:45:15;3.83;;;2.75;;
58250;SDS011;51449;51.676;5.812;2023-06-05T14:47:55;3.33;;;2.70;;
58250;SDS011;51449;51.676;5.812;2023-06-05T14:50:37;4.13;;;2.38;;
58250;SDS011;51449;51.676;5.812;2023-06-05T14:53:17;5.25;;;2.95;;
58250;SDS011;51449;51.676;5.812;2023-06-05T14:55:57;3.80;;;3.08;;
58250;SDS011;51449;51.676;5.812;2023-06-05T14:58:38;3.95;;;3.05;;
58250;SDS011;51449;51.676;5.812;2023-06-05T15:01:18;4.10;;;2.70;;
58250;SDS011;51449;51.676;5.812;2023-06-05T15:03:58;4.43;;;2.78;;
58250;SDS011;51449;51.676;5.812;2023-06-05T15:06:39;4.43;;;2.88;;
58250;SDS011;51449;51.676;5.812;2023-06-05T15:09:21;4.03;;;2.85;;
58250;SDS011;51449;51.676;5.812;2023-06-05T15:12:02;4.47;;;3.15;;
58250;SDS011;51449;51.676;5.812;2023-06-05T15:14:45;3.65;;;2.97;;
58250;SDS011;51449;51.676;5.812;2023-06-05T15:17:25;4.03;;;2.88;;
58250;SDS011;51449;51.676;5.812;2023-06-05T15:20:06;3.47;;;2.95;;
58250;SDS011;51449;51.676;5.812;2023-06-05T15:22:47;3.70;;;2.80;;
58250;SDS011;51449;51.676;5.812;2023-06-05T15:25:39;4.95;;;2.92;;
58250;SDS011;51449;51.676;5.812;2023-06-05T15:28:20;4.72;;;2.95;;
58250;SDS011;51449;51.676;5.812;2023-06-05T15:31:00;5.75;;;3.08;;
58250;SDS011;51449;51.676;5.812;2023-06-05T15:33:40;5.03;;;2.92;;
58250;SDS011;51449;51.676;5.812;2023-06-05T15:36:20;4.80;;;2.97;;
58250;SDS011;51449;51.676;5.812;2023-06-05T15:39:01;4.32;;;2.88;;
58250;SDS011;51449;51.676;5.812;2023-06-05T15:41:42;4.28;;;2.88;;
58250;SDS011;51449;51.676;5.812;2023-06-05T15:44:25;5.80;;;3.10;;
58250;SDS011;51449;51.676;5.812;2023-06-05T15:47:06;4.47;;;3.42;;
58250;SDS011;51449;51.676;5.812;2023-06-05T15:49:47;3.60;;;3.10;;
58250;SDS011;51449;51.676;5.812;2023-06-05T15:52:28;4.15;;;2.83;;
58250;SDS011;51449;51.676;5.812;2023-06-05T15:55:10;3.95;;;3.10;;
58250;SDS011;51449;51.676;5.812;2023-06-05T15:57:51;6.10;;;3.53;;
58250;SDS011;51449;51.676;5.812;2023-06-05T16:00:32;3.90;;;3.10;;
58250;SDS011;51449;51.676;5.812;2023-06-05T16:03:12;8.38;;;3.53;;
58250;SDS011;51449;51.676;5.812;2023-06-05T16:05:53;5.03;;;3.20;;
58250;SDS011;51449;51.676;5.812;2023-06-05T16:08:33;4.78;;;3.30;;
58250;SDS011;51449;51.676;5.812;2023-06-05T16:11:13;4.03;;;3.15;;
58250;SDS011;51449;51.676;5.812;2023-06-05T16:13:53;4.35;;;3.00;;
58250;SDS011;51449;51.676;5.812;2023-06-05T16:16:34;5.20;;;2.83;;
58250;SDS011;51449;51.676;5.812;2023-06-05T16:19:14;3.92;;;3.33;;
58250;SDS011;51449;51.676;5.812;2023-06-05T16:21:54;6.10;;;3.17;;
58250;SDS011;51449;51.676;5.812;2023-06-05T16:24:37;3.42;;;2.95;;
58250;SDS011;51449;51.676;5.812;2023-06-05T16:27:18;4.40;;;2.88;;
58250;SDS011;51449;51.676;5.812;2023-06-05T16:29:59;3.95;;;2.90;;
58250;SDS011;51449;51.676;5.812;2023-06-05T16:32:39;3.65;;;3.00;;
58250;SDS011;51449;51.676;5.812;2023-06-05T16:35:20;4.13;;;2.80;;
58250;SDS011;51449;51.676;5.812;2023-06-05T16:38:00;5.85;;;3.40;;
58250;SDS011;51449;51.676;5.812;2023-06-05T16:40:41;3.67;;;3.10;;
58250;SDS011;51449;51.676;5.812;2023-06-05T16:43:22;4.85;;;3.22;;